sensor_id;sensor_type;location;lat;lon;timestamp;pressure;altitude;pressure_sealevel;temperature;humidity
73103;BME280;61294;65.988;29.172;2023-02-15T00:01:19;98898.81;;;-4.37;100.00
73103;BME280;61294;65.988;29.172;2023-02-15T00:03:47;98897.47;;;-4.30;100.00
73103;BME280;61294;65.988;29.172;2023-02-15T00:06:14;98903.53;;;-4.30;100.00
73103;BME280;61294;65.988;29.172;2023-02-15T00:08:40;98875.56;;;-4.54;100.00
73103;BME280;61294;65.988;29.172;2023-02-15T00:11:09;98903.44;;;-4.31;100.00
73103;BME280;61294;65.988;29.172;2023-02-15T00:13:36;98904.50;;;-4.28;100.00
73103;BME280;61294;65.988;29.172;2023-02-15T00:16:05;98896.84;;;-4.26;100.00
73103;BME280;61294;65.988;29.172;2023-02-15T00:18:31;98892.69;;;-4.24;100.00
73103;BME280;61294;65.988;29.172;2023-02-15T00:20:57;98902.91;;;-4.26;100.00
73103;BME280;61294;65.988;29.172;2023-02-15T00:23:24;98879.66;;;-4.42;100.00
73103;BME280;61294;65.988;29.172;2023-02-15T00:25:51;98878.34;;;-4.36;100.00
73103;BME280;61294;65.988;29.172;2023-02-15T00:28:17;98901.03;;;-4.28;100.00
73103;BME280;61294;65.988;29.172;2023-02-15T00:30:43;98876.63;;;-4.35;100.00
73103;BME280;61294;65.988;29.172;2023-02-15T00:33:08;98865.84;;;-4.44;100.00
73103;BME280;61294;65.988;29.172;2023-02-15T00:35:34;98892.78;;;-4.23;100.00
73103;BME280;61294;65.988;29.172;2023-02-15T00:38:00;98891.78;;;-4.25;100.00
73103;BME280;61294;65.988;29.172;2023-02-15T00:40:25;98893.75;;;-4.21;100.00
73103;BME280;61294;65.988;29.172;2023-02-15T00:42:51;98889.31;;;-4.23;100.00
73103;BME280;61294;65.988;29.172;2023-02-15T00:45:17;98879.75;;;-4.26;100.00
73103;BME280;61294;65.988;29.172;2023-02-15T00:47:43;98883.13;;;-4.27;100.00
73103;BME280;61294;65.988;29.172;2023-02-15T00:50:09;98888.97;;;-4.29;100.00
73103;BME280;61294;65.988;29.172;2023-02-15T00:52:34;98892.53;;;-4.27;100.00
73103;BME280;61294;65.988;29.172;2023-02-15T00:55:00;98889.22;;;-4.25;100.00
73103;BME280;61294;65.988;29.172;2023-02-15T00:57:26;98892.00;;;-4.22;100.00
73103;BME280;61294;65.988;29.172;2023-02-15T00:59:52;98885.06;;;-4.23;100.00
73103;BME280;61294;65.988;29.172;2023-02-15T01:02:17;98892.78;;;-4.23;100.00
73103;BME280;61294;65.988;29.172;2023-02-15T01:04:43;98895.44;;;-4.21;100.00
73103;BME280;61294;65.988;29.172;2023-02-15T01:07:09;98897.03;;;-4.23;100.00
73103;BME280;61294;65.988;29.172;2023-02-15T01:09:34;98892.63;;;-4.26;100.00
73103;BME280;61294;65.988;29.172;2023-02-15T01:12:00;98893.84;;;-4.19;100.00
73103;BME280;61294;65.988;29.172;2023-02-15T01:14:26;98895.69;;;-4.17;100.00
73103;BME280;61294;65.988;29.172;2023-02-15T01:16:52;98888.59;;;-4.21;100.00
73103;BME280;61294;65.988;29.172;2023-02-15T01:19:19;98887.47;;;-4.26;100.00
73103;BME280;61294;65.988;29.172;2023-02-15T01:21:45;98888.19;;;-4.28;100.00
73103;BME280;61294;65.988;29.172;2023-02-15T01:24:13;98885.00;;;-4.24;100.00
73103;BME280;61294;65.988;29.172;2023-02-15T01:26:40;98866.44;;;-4.34;100.00
73103;BME280;61294;65.988;29.172;2023-02-15T01:29:06;98890.13;;;-4.24;100.00
73103;BME280;61294;65.988;29.172;2023-02-15T01:31:33;98890.13;;;-4.24;100.00
73103;BME280;61294;65.988;29.172;2023-02-15T01:33:59;98885.00;;;-4.24;100.00
73103;BME280;61294;65.988;29.172;2023-02-15T01:36:25;98877.63;;;-4.33;100.00
73103;BME280;61294;65.988;29.172;2023-02-15T01:38:51;98871.69;;;-4.47;100.00
73103;BME280;61294;65.988;29.172;2023-02-15T01:41:17;98902.44;;;-4.34;100.00
73103;BME280;61294;65.988;29.172;2023-02-15T01:43:48;98897.31;;;-4.34;100.00
73103;BME280;61294;65.988;29.172;2023-02-15T01:46:16;98896.50;;;-4.32;100.00
73103;BME280;61294;65.988;29.172;2023-02-15T01:48:46;98881.44;;;-4.41;100.00
73103;BME280;61294;65.988;29.172;2023-02-15T01:51:15;98895.44;;;-4.36;100.00
73103;BME280;61294;65.988;29.172;2023-02-15T01:53:51;98894.38;;;-4.40;100.00
73103;BME280;61294;65.988;29.172;2023-02-15T01:56:22;98890.03;;;-4.41;100.00
73103;BME280;61294;65.988;29.172;2023-02-15T01:58:51;98907.41;;;-4.37;100.00
73103;BME280;61294;65.988;29.172;2023-02-15T02:01:18;98902.97;;;-4.39;100.00
73103;BME280;61294;65.988;29.172;2023-02-15T02:04:23;98899.34;;;-4.43;100.00
73103;BME280;61294;65.988;29.172;2023-02-15T02:06:53;98905.03;;;-4.48;100.00
73103;BME280;61294;65.988;29.172;2023-02-15T02:09:19;98899.63;;;-4.53;100.00
73103;BME280;61294;65.988;29.172;2023-02-15T02:11:46;98901.19;;;-4.55;100.00
73103;BME280;61294;65.988;29.172;2023-02-15T02:14:13;98893.22;;;-4.60;100.00
73103;BME280;61294;65.988;29.172;2023-02-15T02:27:18;98833.34;;;-5.30;100.00
73103;BME280;61294;65.988;29.172;2023-02-15T02:38:26;98862.25;;;-5.48;100.00
73103;BME280;61294;65.988;29.172;2023-02-15T02:49:14;98878.00;;;-5.70;100.00
73103;BME280;61294;65.988;29.172;2023-02-15T02:51:40;98846.38;;;-5.97;100.00
73103;BME280;61294;65.988;29.172;2023-02-15T02:54:06;98893.69;;;-5.79;100.00
73103;BME280;61294;65.988;29.172;2023-02-15T02:56:44;98881.47;;;-5.83;100.00
73103;BME280;61294;65.988;29.172;2023-02-15T02:59:17;98855.38;;;-6.04;100.00
73103;BME280;61294;65.988;29.172;2023-02-15T03:01:49;98884.84;;;-5.97;100.00
73103;BME280;61294;65.988;29.172;2023-02-15T03:04:24;98876.78;;;-6.03;100.00
73103;BME280;61294;65.988;29.172;2023-02-15T03:07:06;98879.06;;;-6.08;100.00
73103;BME280;61294;65.988;29.172;2023-02-15T03:09:39;98855.47;;;-6.29;100.00
73103;BME280;61294;65.988;29.172;2023-02-15T03:12:16;98883.47;;;-6.19;100.00
73103;BME280;61294;65.988;29.172;2023-02-15T03:14:46;98850.34;;;-6.43;100.00
73103;BME280;61294;65.988;29.172;2023-02-15T03:17:13;98838.50;;;-6.54;100.00
73103;BME280;61294;65.988;29.172;2023-02-15T03:19:40;98881.69;;;-6.33;100.00
73103;BME280;61294;65.988;29.172;2023-02-15T03:22:22;98853.41;;;-6.48;100.00
73103;BME280;61294;65.988;29.172;2023-02-15T03:24:53;98880.22;;;-6.43;100.00
73103;BME280;61294;65.988;29.172;2023-02-15T03:27:24;98857.81;;;-6.59;100.00
73103;BME280;61294;65.988;29.172;2023-02-15T03:29:54;98863.63;;;-6.62;100.00
73103;BME280;61294;65.988;29.172;2023-02-15T03:32:22;98884.53;;;-6.55;100.00
73103;BME280;61294;65.988;29.172;2023-02-15T03:34:50;98888.47;;;-6.61;100.00
73103;BME280;61294;65.988;29.172;2023-02-15T03:37:27;98894.06;;;-6.66;100.00
73103;BME280;61294;65.988;29.172;2023-02-15T03:43:56;98891.53;;;-6.91;100.00
73103;BME280;61294;65.988;29.172;2023-02-15T03:46:40;98911.22;;;-6.90;100.00
73103;BME280;61294;65.988;29.172;2023-02-15T03:49:14;98901.16;;;-7.01;100.00
73103;BME280;61294;65.988;29.172;2023-02-15T03:51:44;98868.50;;;-7.17;100.00
73103;BME280;61294;65.988;29.172;2023-02-15T03:54:26;98902.72;;;-7.03;100.00
73103;BME280;61294;65.988;29.172;2023-02-15T04:00:04;98906.44;;;-7.11;100.00
73103;BME280;61294;65.988;29.172;2023-02-15T04:05:23;98912.59;;;-7.21;100.00
73103;BME280;61294;65.988;29.172;2023-02-15T04:07:49;98903.13;;;-7.22;100.00
73103;BME280;61294;65.988;29.172;2023-02-15T04:10:15;98907.78;;;-7.16;100.00
73103;BME280;61294;65.988;29.172;2023-02-15T04:12:59;98883.38;;;-7.48;100.00
73103;BME280;61294;65.988;29.172;2023-02-15T04:15:25;98888.66;;;-7.58;100.00
73103;BME280;61294;65.988;29.172;2023-02-15T04:18:09;98884.09;;;-7.51;100.00
73103;BME280;61294;65.988;29.172;2023-02-15T04:20:35;98924.06;;;-7.28;100.00
73103;BME280;61294;65.988;29.172;2023-02-15T04:23:19;98906.47;;;-7.23;100.00
73103;BME280;61294;65.988;29.172;2023-02-15T04:26:04;98912.34;;;-7.12;100.00
73103;BME280;61294;65.988;29.172;2023-02-15T04:28:30;98898.97;;;-7.08;100.00
73103;BME280;61294;65.988;29.172;2023-02-15T04:30:56;98888.19;;;-7.16;100.00
73103;BME280;61294;65.988;29.172;2023-02-15T04:33:21;98917.28;;;-7.02;100.00
73103;BME280;61294;65.988;29.172;2023-02-15T04:35:47;98913.28;;;-6.98;100.00
73103;BME280;61294;65.988;29.172;2023-02-15T04:38:13;98921.09;;;-7.08;100.00
73103;BME280;61294;65.988;29.172;2023-02-15T04:40:39;98914.78;;;-7.14;100.00
73103;BME280;61294;65.988;29.172;2023-02-15T04:43:04;98912.91;;;-7.16;100.00
73103;BME280;61294;65.988;29.172;2023-02-15T04:45:30;98905.22;;;-7.16;100.00
73103;BME280;61294;65.988;29.172;2023-02-15T04:47:56;98908.88;;;-7.13;100.00
73103;BME280;61294;65.988;29.172;2023-02-15T04:50:22;98903.53;;;-7.16;100.00
73103;BME280;61294;65.988;29.172;2023-02-15T04:52:48;98909.31;;;-7.18;100.00
73103;BME280;61294;65.988;29.172;2023-02-15T04:55:14;98854.56;;;-7.46;100.00
73103;BME280;61294;65.988;29.172;2023-02-15T04:57:39;98909.31;;;-7.18;100.00
73103;BME280;61294;65.988;29.172;2023-02-15T05:00:06;98878.09;;;-7.26;100.00
73103;BME280;61294;65.988;29.172;2023-02-15T05:02:33;98877.53;;;-7.22;100.00
73103;BME280;61294;65.988;29.172;2023-02-15T05:04:59;98908.56;;;-7.17;100.00
73103;BME280;61294;65.988;29.172;2023-02-15T05:07:25;98877.88;;;-7.29;100.00
73103;BME280;61294;65.988;29.172;2023-02-15T05:09:51;98888.66;;;-7.21;100.00
73103;BME280;61294;65.988;29.172;2023-02-15T05:12:16;98868.31;;;-7.32;100.00
73103;BME280;61294;65.988;29.172;2023-02-15T05:14:42;98866.13;;;-7.39;100.00
73103;BME280;61294;65.988;29.172;2023-02-15T05:17:08;98855.03;;;-7.51;100.00
73103;BME280;61294;65.988;29.172;2023-02-15T05:19:33;98873.38;;;-7.45;100.00
73103;BME280;61294;65.988;29.172;2023-02-15T05:21:59;98844.78;;;-7.51;100.00
73103;BME280;61294;65.988;29.172;2023-02-15T05:24:25;98909.84;;;-7.36;100.00
73103;BME280;61294;65.988;29.172;2023-02-15T05:27:12;98908.50;;;-7.31;100.00
73103;BME280;61294;65.988;29.172;2023-02-15T05:29:57;98899.97;;;-7.43;100.00
73103;BME280;61294;65.988;29.172;2023-02-15T05:32:22;98868.63;;;-7.64;100.00
73103;BME280;61294;65.988;29.172;2023-02-15T05:34:48;98880.31;;;-7.56;100.00
73103;BME280;61294;65.988;29.172;2023-02-15T05:37:14;98905.38;;;-7.38;100.00
73103;BME280;61294;65.988;29.172;2023-02-15T05:39:40;98897.97;;;-7.47;100.00
73103;BME280;61294;65.988;29.172;2023-02-15T05:42:05;98912.66;;;-7.44;100.00
73103;BME280;61294;65.988;29.172;2023-02-15T05:44:31;98907.06;;;-7.39;100.00
73103;BME280;61294;65.988;29.172;2023-02-15T05:46:57;98898.06;;;-7.46;100.00
73103;BME280;61294;65.988;29.172;2023-02-15T05:49:22;98904.44;;;-7.52;100.00
73103;BME280;61294;65.988;29.172;2023-02-15T05:51:48;98882.75;;;-7.57;100.00
73103;BME280;61294;65.988;29.172;2023-02-15T05:54:14;98894.31;;;-7.51;100.00
73103;BME280;61294;65.988;29.172;2023-02-15T05:56:40;98888.84;;;-7.55;100.00
73103;BME280;61294;65.988;29.172;2023-02-15T05:59:06;98881.78;;;-7.59;100.00
73103;BME280;61294;65.988;29.172;2023-02-15T06:01:31;98903.66;;;-7.51;100.00
73103;BME280;61294;65.988;29.172;2023-02-15T06:03:57;98895.97;;;-7.39;100.00
73103;BME280;61294;65.988;29.172;2023-02-15T06:06:23;98908.59;;;-7.29;100.00
73103;BME280;61294;65.988;29.172;2023-02-15T06:08:48;98911.63;;;-7.35;100.00
73103;BME280;61294;65.988;29.172;2023-02-15T06:11:14;98900.09;;;-7.53;100.00
73103;BME280;61294;65.988;29.172;2023-02-15T06:13:40;98899.84;;;-7.44;100.00
73103;BME280;61294;65.988;29.172;2023-02-15T06:16:06;98900.53;;;-7.47;100.00
73103;BME280;61294;65.988;29.172;2023-02-15T06:18:32;98858.84;;;-7.58;100.00
73103;BME280;61294;65.988;29.172;2023-02-15T06:20:58;98919.16;;;-7.24;100.00
73103;BME280;61294;65.988;29.172;2023-02-15T06:23:24;98912.34;;;-7.24;100.00
73103;BME280;61294;65.988;29.172;2023-02-15T06:25:49;98921.03;;;-7.22;100.00
73103;BME280;61294;65.988;29.172;2023-02-15T06:28:15;98904.09;;;-7.45;100.00
73103;BME280;61294;65.988;29.172;2023-02-15T06:30:41;98866.84;;;-7.53;100.00
73103;BME280;61294;65.988;29.172;2023-02-15T06:33:07;98913.56;;;-7.19;100.00
73103;BME280;61294;65.988;29.172;2023-02-15T06:35:32;98923.59;;;-7.22;100.00
73103;BME280;61294;65.988;29.172;2023-02-15T06:37:58;98923.59;;;-7.22;100.00
73103;BME280;61294;65.988;29.172;2023-02-15T06:40:24;98915.88;;;-7.10;100.00
73103;BME280;61294;65.988;29.172;2023-02-15T06:42:49;98898.94;;;-7.33;100.00
73103;BME280;61294;65.988;29.172;2023-02-15T06:45:15;98892.13;;;-7.33;100.00
73103;BME280;61294;65.988;29.172;2023-02-15T06:47:41;98901.38;;;-7.35;100.00
73103;BME280;61294;65.988;29.172;2023-02-15T06:50:07;98938.31;;;-7.31;100.00
73103;BME280;61294;65.988;29.172;2023-02-15T06:52:33;98914.19;;;-7.35;100.00
73103;BME280;61294;65.988;29.172;2023-02-15T06:54:59;98902.38;;;-7.33;100.00
73103;BME280;61294;65.988;29.172;2023-02-15T06:57:25;98937.38;;;-7.20;100.00
73103;BME280;61294;65.988;29.172;2023-02-15T06:59:50;98915.50;;;-7.28;100.00
73103;BME280;61294;65.988;29.172;2023-02-15T07:02:18;98940.53;;;-6.99;100.00
73103;BME280;61294;65.988;29.172;2023-02-15T07:04:43;98911.38;;;-7.26;100.00
73103;BME280;61294;65.988;29.172;2023-02-15T07:07:10;98900.03;;;-7.30;100.00
73103;BME280;61294;65.988;29.172;2023-02-15T07:09:37;98932.25;;;-7.08;100.00
73103;BME280;61294;65.988;29.172;2023-02-15T07:12:03;98917.44;;;-7.12;100.00
73103;BME280;61294;65.988;29.172;2023-02-15T07:14:47;98877.47;;;-7.35;100.00
73103;BME280;61294;65.988;29.172;2023-02-15T07:17:13;98911.59;;;-7.23;100.00
73103;BME280;61294;65.988;29.172;2023-02-15T07:19:38;98937.63;;;-6.91;100.00
73103;BME280;61294;65.988;29.172;2023-02-15T07:22:04;98938.91;;;-6.98;100.00
73103;BME280;61294;65.988;29.172;2023-02-15T07:24:30;98944.91;;;-6.98;100.00
73103;BME280;61294;65.988;29.172;2023-02-15T07:26:56;98945.00;;;-6.96;100.00
73103;BME280;61294;65.988;29.172;2023-02-15T07:29:23;98911.53;;;-7.36;100.00
73103;BME280;61294;65.988;29.172;2023-02-15T07:31:49;98927.25;;;-7.18;100.00
73103;BME280;61294;65.988;29.172;2023-02-15T07:34:15;98947.16;;;-7.02;100.00
73103;BME280;61294;65.988;29.172;2023-02-15T07:36:41;98921.59;;;-7.26;100.00
73103;BME280;61294;65.988;29.172;2023-02-15T07:39:07;98898.94;;;-7.33;100.00
73103;BME280;61294;65.988;29.172;2023-02-15T07:41:33;98957.31;;;-7.16;100.00
73103;BME280;61294;65.988;29.172;2023-02-15T07:43:58;98930.06;;;-7.27;100.00
73103;BME280;61294;65.988;29.172;2023-02-15T07:46:24;98947.81;;;-7.05;100.00
73103;BME280;61294;65.988;29.172;2023-02-15T07:48:50;98898.06;;;-7.34;100.00
73103;BME280;61294;65.988;29.172;2023-02-15T07:51:15;98954.72;;;-7.04;100.00
73103;BME280;61294;65.988;29.172;2023-02-15T07:53:42;98953.09;;;-6.90;100.00
73103;BME280;61294;65.988;29.172;2023-02-15T07:56:11;98944.03;;;-6.98;100.00
73103;BME280;61294;65.988;29.172;2023-02-15T07:58:37;98926.13;;;-7.10;100.00
73103;BME280;61294;65.988;29.172;2023-02-15T08:01:40;98959.94;;;-7.02;100.00
73103;BME280;61294;65.988;29.172;2023-02-15T08:04:06;98919.56;;;-7.18;100.00
73103;BME280;61294;65.988;29.172;2023-02-15T08:06:34;98948.31;;;-6.85;100.00
73103;BME280;61294;65.988;29.172;2023-02-15T08:09:04;98953.81;;;-6.92;100.00
73103;BME280;61294;65.988;29.172;2023-02-15T08:11:33;98955.75;;;-6.88;100.00
73103;BME280;61294;65.988;29.172;2023-02-15T08:14:04;98935.13;;;-7.03;100.00
73103;BME280;61294;65.988;29.172;2023-02-15T08:16:40;98947.47;;;-6.98;100.00
73103;BME280;61294;65.988;29.172;2023-02-15T08:19:21;98923.88;;;-7.05;100.00
73103;BME280;61294;65.988;29.172;2023-02-15T08:21:56;98946.94;;;-6.80;100.00
73103;BME280;61294;65.988;29.172;2023-02-15T08:24:24;98967.06;;;-6.73;100.00
73103;BME280;61294;65.988;29.172;2023-02-15T08:26:51;98950.38;;;-6.54;100.00
73103;BME280;61294;65.988;29.172;2023-02-15T08:29:20;98949.44;;;-6.68;100.00
73103;BME280;61294;65.988;29.172;2023-02-15T08:31:48;98959.06;;;-6.52;100.00
73103;BME280;61294;65.988;29.172;2023-02-15T08:34:16;98963.44;;;-6.38;100.00
73103;BME280;61294;65.988;29.172;2023-02-15T08:36:43;98945.88;;;-6.45;100.00
73103;BME280;61294;65.988;29.172;2023-02-15T08:39:11;98955.56;;;-6.28;100.00
73103;BME280;61294;65.988;29.172;2023-02-15T08:41:38;98957.44;;;-6.25;100.00
73103;BME280;61294;65.988;29.172;2023-02-15T08:44:06;98960.72;;;-6.14;100.00
73103;BME280;61294;65.988;29.172;2023-02-15T08:46:34;98935.03;;;-6.41;100.00
73103;BME280;61294;65.988;29.172;2023-02-15T08:49:01;98954.41;;;-6.19;100.00
73103;BME280;61294;65.988;29.172;2023-02-15T08:51:32;98960.66;;;-6.02;100.00
73103;BME280;61294;65.988;29.172;2023-02-15T08:54:01;98949.06;;;-5.96;100.00
73103;BME280;61294;65.988;29.172;2023-02-15T08:56:29;98950.72;;;-5.83;100.00
73103;BME280;61294;65.988;29.172;2023-02-15T08:58:57;98922.31;;;-5.86;100.00
73103;BME280;61294;65.988;29.172;2023-02-15T09:01:28;98944.13;;;-5.66;100.00
73103;BME280;61294;65.988;29.172;2023-02-15T09:03:57;98949.56;;;-5.61;100.00
73103;BME280;61294;65.988;29.172;2023-02-15T09:06:24;98944.22;;;-5.78;100.00
73103;BME280;61294;65.988;29.172;2023-02-15T09:08:51;98938.03;;;-5.81;100.00
73103;BME280;61294;65.988;29.172;2023-02-15T09:11:20;98927.16;;;-5.77;100.00
73103;BME280;61294;65.988;29.172;2023-02-15T09:13:54;98932.00;;;-5.68;100.00
73103;BME280;61294;65.988;29.172;2023-02-15T09:16:22;98927.16;;;-5.77;100.00
73103;BME280;61294;65.988;29.172;2023-02-15T09:18:48;98939.41;;;-5.86;100.00
73103;BME280;61294;65.988;29.172;2023-02-15T09:21:17;98902.69;;;-6.39;100.00
73103;BME280;61294;65.988;29.172;2023-02-15T09:23:45;98939.22;;;-6.30;100.00
73103;BME280;61294;65.988;29.172;2023-02-15T09:26:14;98941.88;;;-6.01;100.00
73103;BME280;61294;65.988;29.172;2023-02-15T09:28:41;98903.28;;;-5.90;100.00
73103;BME280;61294;65.988;29.172;2023-02-15T09:31:16;98932.00;;;-6.09;100.00
73103;BME280;61294;65.988;29.172;2023-02-15T09:33:43;98929.63;;;-6.19;100.00
73103;BME280;61294;65.988;29.172;2023-02-15T09:38:45;98912.69;;;-6.17;100.00
73103;BME280;61294;65.988;29.172;2023-02-15T09:41:34;98935.72;;;-5.90;100.00
73103;BME280;61294;65.988;29.172;2023-02-15T09:55:21;98896.09;;;-4.83;100.00
73103;BME280;61294;65.988;29.172;2023-02-15T10:03:21;98910.25;;;-4.32;100.00
73103;BME280;61294;65.988;29.172;2023-02-15T10:08:35;98903.94;;;-4.52;100.00
73103;BME280;61294;65.988;29.172;2023-02-15T10:11:23;98921.50;;;-4.60;100.00
73103;BME280;61294;65.988;29.172;2023-02-15T10:14:34;98907.28;;;-4.68;100.00
73103;BME280;61294;65.988;29.172;2023-02-15T10:17:26;98892.00;;;-4.52;100.00
73103;BME280;61294;65.988;29.172;2023-02-15T10:22:47;98908.03;;;-4.56;100.00
73103;BME280;61294;65.988;29.172;2023-02-15T10:25:57;98900.66;;;-5.08;100.00
73103;BME280;61294;65.988;29.172;2023-02-15T10:28:45;98884.28;;;-4.95;100.00
73103;BME280;61294;65.988;29.172;2023-02-15T10:34:16;98883.84;;;-5.03;100.00
73103;BME280;61294;65.988;29.172;2023-02-15T11:01:23;98900.34;;;-5.27;100.00
73103;BME280;61294;65.988;29.172;2023-02-15T11:06:29;98901.44;;;-5.50;100.00
73103;BME280;61294;65.988;29.172;2023-02-15T11:09:10;98887.94;;;-5.48;100.00
73103;BME280;61294;65.988;29.172;2023-02-15T11:11:50;98876.72;;;-5.35;100.00
73103;BME280;61294;65.988;29.172;2023-02-15T11:14:33;98870.00;;;-5.75;100.00
73103;BME280;61294;65.988;29.172;2023-02-15T11:17:10;98895.75;;;-5.60;100.00
73103;BME280;61294;65.988;29.172;2023-02-15T11:19:48;98870.78;;;-5.62;100.00
73103;BME280;61294;65.988;29.172;2023-02-15T11:22:15;98892.88;;;-5.51;100.00
73103;BME280;61294;65.988;29.172;2023-02-15T11:24:43;98883.38;;;-5.52;100.00
73103;BME280;61294;65.988;29.172;2023-02-15T11:30:02;98890.75;;;-5.30;100.00
73103;BME280;61294;65.988;29.172;2023-02-15T11:32:40;98894.28;;;-5.28;100.00
73103;BME280;61294;65.988;29.172;2023-02-15T11:37:47;98880.47;;;-5.30;100.00
73103;BME280;61294;65.988;29.172;2023-02-15T11:40:50;98846.91;;;-5.33;100.00
73103;BME280;61294;65.988;29.172;2023-02-15T11:43:21;98865.06;;;-5.01;100.00
73103;BME280;61294;65.988;29.172;2023-02-15T11:45:50;98876.25;;;-4.86;100.00
73103;BME280;61294;65.988;29.172;2023-02-15T11:48:16;98877.53;;;-5.08;100.00
73103;BME280;61294;65.988;29.172;2023-02-15T11:50:44;98876.03;;;-5.04;100.00
73103;BME280;61294;65.988;29.172;2023-02-15T11:53:21;98848.44;;;-5.22;100.00
73103;BME280;61294;65.988;29.172;2023-02-15T11:55:51;98826.97;;;-5.37;100.00
73103;BME280;61294;65.988;29.172;2023-02-15T11:58:37;98874.84;;;-4.96;100.00
73103;BME280;61294;65.988;29.172;2023-02-15T12:04:38;98873.81;;;-5.13;100.00
73103;BME280;61294;65.988;29.172;2023-02-15T12:06:43;98878.59;;;-5.32;100.00
73103;BME280;61294;65.988;29.172;2023-02-15T12:09:22;98841.16;;;-5.29;100.00
73103;BME280;61294;65.988;29.172;2023-02-15T12:11:51;98868.75;;;-5.11;100.00
73103;BME280;61294;65.988;29.172;2023-02-15T12:14:17;98858.84;;;-5.05;100.00
73103;BME280;61294;65.988;29.172;2023-02-15T12:16:49;98837.56;;;-5.17;100.00
73103;BME280;61294;65.988;29.172;2023-02-15T12:19:39;98842.81;;;-5.44;100.00
73103;BME280;61294;65.988;29.172;2023-02-15T12:22:18;98865.06;;;-5.30;100.00
73103;BME280;61294;65.988;29.172;2023-02-15T12:24:46;98845.97;;;-5.20;100.00
73103;BME280;61294;65.988;29.172;2023-02-15T12:27:30;98870.94;;;-5.17;100.00
73103;BME280;61294;65.988;29.172;2023-02-15T12:30:06;98874.50;;;-5.15;100.00
73103;BME280;61294;65.988;29.172;2023-02-15T12:32:49;98875.03;;;-5.06;100.00
73103;BME280;61294;65.988;29.172;2023-02-15T12:35:31;98838.97;;;-5.51;100.00
73103;BME280;61294;65.988;29.172;2023-02-15T12:41:10;98882.75;;;-5.34;100.00
73103;BME280;61294;65.988;29.172;2023-02-15T12:43:41;98864.28;;;-5.57;100.00
73103;BME280;61294;65.988;29.172;2023-02-15T12:46:26;98870.47;;;-5.53;100.00
73103;BME280;61294;65.988;29.172;2023-02-15T12:49:16;98877.94;;;-5.43;100.00
73103;BME280;61294;65.988;29.172;2023-02-15T12:51:54;98835.91;;;-5.59;100.00
73103;BME280;61294;65.988;29.172;2023-02-15T12:54:43;98869.28;;;-5.45;100.00
73103;BME280;61294;65.988;29.172;2023-02-15T12:57:29;98872.06;;;-5.56;100.00
73103;BME280;61294;65.988;29.172;2023-02-15T12:59:58;98863.38;;;-5.58;100.00
73103;BME280;61294;65.988;29.172;2023-02-15T13:02:41;98848.53;;;-5.48;100.00
73103;BME280;61294;65.988;29.172;2023-02-15T13:05:39;98855.25;;;-5.50;100.00
73103;BME280;61294;65.988;29.172;2023-02-15T13:08:19;98843.84;;;-5.69;100.00
73103;BME280;61294;65.988;29.172;2023-02-15T13:10:58;98869.91;;;-5.63;100.00
73103;BME280;61294;65.988;29.172;2023-02-15T13:13:33;98849.06;;;-5.67;100.00
73103;BME280;61294;65.988;29.172;2023-02-15T13:16:12;98866.16;;;-5.68;100.00
73103;BME280;61294;65.988;29.172;2023-02-15T13:18:44;98861.88;;;-5.54;100.00
73103;BME280;61294;65.988;29.172;2023-02-15T13:21:34;98851.94;;;-5.63;100.00
73103;BME280;61294;65.988;29.172;2023-02-15T13:24:06;98821.66;;;-5.82;100.00
73103;BME280;61294;65.988;29.172;2023-02-15T13:26:36;98840.88;;;-5.62;100.00
73103;BME280;61294;65.988;29.172;2023-02-15T13:29:33;98827.97;;;-5.77;100.00
73103;BME280;61294;65.988;29.172;2023-02-15T13:32:02;98855.94;;;-5.81;100.00
73103;BME280;61294;65.988;29.172;2023-02-15T13:34:33;98858.28;;;-5.71;100.00
73103;BME280;61294;65.988;29.172;2023-02-15T13:37:33;98842.59;;;-5.76;100.00
73103;BME280;61294;65.988;29.172;2023-02-15T13:43:03;98848.81;;;-5.85;100.00
73103;BME280;61294;65.988;29.172;2023-02-15T13:45:50;98848.59;;;-5.75;100.00
73103;BME280;61294;65.988;29.172;2023-02-15T13:48:44;98843.28;;;-5.78;100.00
73103;BME280;61294;65.988;29.172;2023-02-15T13:51:21;98849.00;;;-5.96;100.00
73103;BME280;61294;65.988;29.172;2023-02-15T14:00:36;98847.63;;;-5.91;100.00
73103;BME280;61294;65.988;29.172;2023-02-15T14:08:31;98835.66;;;-6.18;100.00
73103;BME280;61294;65.988;29.172;2023-02-15T14:14:08;98849.94;;;-6.22;100.00
73103;BME280;61294;65.988;29.172;2023-02-15T14:17:39;98842.75;;;-6.14;100.00
73103;BME280;61294;65.988;29.172;2023-02-15T14:19:59;98836.03;;;-6.26;100.00
73103;BME280;61294;65.988;29.172;2023-02-15T14:22:36;98824.31;;;-6.35;100.00
73103;BME280;61294;65.988;29.172;2023-02-15T14:28:08;98837.94;;;-6.36;100.00
73103;BME280;61294;65.988;29.172;2023-02-15T14:30:38;98824.88;;;-6.53;100.00
73103;BME280;61294;65.988;29.172;2023-02-15T14:35:41;98838.81;;;-6.49;100.00
73103;BME280;61294;65.988;29.172;2023-02-15T14:38:37;98825.50;;;-6.44;100.00
73103;BME280;61294;65.988;29.172;2023-02-15T14:41:12;98799.75;;;-6.59;100.00
73103;BME280;61294;65.988;29.172;2023-02-15T14:46:42;98833.69;;;-6.49;100.00
73103;BME280;61294;65.988;29.172;2023-02-15T14:49:16;98836.81;;;-6.67;100.00
73103;BME280;61294;65.988;29.172;2023-02-15T14:52:04;98833.34;;;-6.81;100.00
73103;BME280;61294;65.988;29.172;2023-02-15T15:05:29;98796.09;;;-7.14;100.00
73103;BME280;61294;65.988;29.172;2023-02-15T15:07:59;98822.78;;;-6.85;100.00
73103;BME280;61294;65.988;29.172;2023-02-15T15:10:37;98796.25;;;-6.99;100.00
73103;BME280;61294;65.988;29.172;2023-02-15T15:18:51;98822.75;;;-6.99;100.00
73103;BME280;61294;65.988;29.172;2023-02-15T15:27:43;98819.41;;;-6.98;100.00
73103;BME280;61294;65.988;29.172;2023-02-15T15:41:44;98814.25;;;-7.11;100.00
73103;BME280;61294;65.988;29.172;2023-02-15T15:49:58;98792.78;;;-7.00;100.00
73103;BME280;61294;65.988;29.172;2023-02-15T15:52:26;98790.88;;;-7.16;100.00